Terminal Aerodrome Forecast
Issued by NWS

Home | Current Version | Previous Version | Text Only | Print | Product List | Glossary On
Versions: 1 2 3 4 5 6 7 8 9 10 11 12 13 14 15 16 17 18 19 20 21 22 23 24 25 26 27 28 29
000
FTUS46 KOTX 282203 AAA
TAFCOE
TAF AMD
KCOE 282203Z 2822/2918 23008KT P6SM VCSH BKN100 OVC150
     FM290200 06008KT P6SM SCT100 OVC150
     FM291100 05010KT 4SM FU HZ SCT100 OVC180
     FM291600 15018G25KT 6SM FU HZ BKN150 OVC200
      AMD LTD TO CLD AND VIS=

USA.gov is the U.S. government's official web portal to all federal, state and local government web resources and services.